Time;durP1;ratioP1;P1;durP2;ratioP2;P2;SDS_P1;SDS_P2;PMS_P1;PMS_P2;Temp;Humidity;BMP_temperature;BMP_pressure;BME280_temperature;BME280_humidity;BME280_pressure;Samples;Min_cycle;Max_cycle;Signal;HPM_P1;HPM_P2
2023/05/17 00:00:30;;;;;;;12.17;6.03;;;;;;;;;;5032950;28;20534;-79
2023/05/17 00:02:57;;;;;;;23.93;6.33;;;;;;;;;;5032464;28;20447;-80
2023/05/17 00:05:23;;;;;;;19.20;6.10;;;;;;;;;;5022147;28;20483;-80
2023/05/17 00:07:50;;;;;;;16.90;5.40;;;;;;;;;;5014622;28;20472;-80
2023/05/17 00:10:21;;;;;;;13.23;5.43;;;;;;;;;;5032985;28;20480;-81
2023/05/17 00:12:48;;;;;;;23.37;5.60;;;;;;;;;;5026419;28;20452;-80
2023/05/17 00:15:14;;;;;;;13.70;5.83;;;;;;;;;;5015220;28;20494;-80
2023/05/17 00:17:42;;;;;;;18.77;4.87;;;;;;;;;;5031243;28;20468;-80
2023/05/17 00:20:09;;;;;;;15.93;4.43;;;;;;;;;;5032948;28;20472;-80
2023/05/17 00:22:35;;;;;;;14.80;4.50;;;;;;;;;;5029763;28;20471;-80
2023/05/17 00:25:02;;;;;;;18.33;5.70;;;;;;;;;;5012532;28;20461;-80
2023/05/17 00:27:28;;;;;;;27.13;6.50;;;;;;;;;;5031302;28;20472;-80
2023/05/17 00:29:54;;;;;;;18.77;5.00;;;;;;;;;;5021476;28;20906;-80
2023/05/17 00:32:21;;;;;;;15.33;4.40;;;;;;;;;;5025231;28;20456;-80
2023/05/17 00:34:48;;;;;;;12.67;5.93;;;;;;;;;;5028237;28;20453;-81
2023/05/17 00:37:15;;;;;;;17.23;4.60;;;;;;;;;;5026311;28;20465;-81
2023/05/17 00:39:41;;;;;;;15.17;6.80;;;;;;;;;;5032223;28;20481;-79
2023/05/17 00:42:08;;;;;;;15.87;4.93;;;;;;;;;;5026025;28;20448;-80
2023/05/17 00:44:34;;;;;;;15.47;4.77;;;;;;;;;;5033596;28;20468;-79
2023/05/17 00:47:01;;;;;;;15.67;4.77;;;;;;;;;;5028932;28;20481;-79
2023/05/17 00:49:28;;;;;;;15.80;5.37;;;;;;;;;;5021595;28;20504;-80
2023/05/17 00:51:56;;;;;;;14.97;4.83;;;;;;;;;;5030641;28;20473;-79
2023/05/17 00:54:22;;;;;;;12.80;5.47;;;;;;;;;;5029348;28;20465;-80
2023/05/17 00:56:49;;;;;;;20.43;4.90;;;;;;;;;;5033580;28;20471;-79
2023/05/17 00:59:17;;;;;;;14.73;4.53;;;;;;;;;;5031659;28;20481;-79
2023/05/17 01:01:45;;;;;;;11.93;4.60;;;;;;;;;;5024905;28;20477;-79
2023/05/17 01:04:11;;;;;;;12.63;4.80;;;;;;;;;;5012677;28;20844;-80
2023/05/17 01:06:38;;;;;;;12.73;4.83;;;;;;;;;;5032175;28;20489;-79
2023/05/17 01:09:07;;;;;;;16.10;4.23;;;;;;;;;;5013843;28;20820;-80
2023/05/17 01:11:38;;;;;;;19.13;4.57;;;;;;;;;;5021803;28;20472;-80
2023/05/17 01:14:09;;;;;;;15.23;5.13;;;;;;;;;;5011618;28;20460;-79
2023/05/17 01:16:40;;;;;;;14.93;6.53;;;;;;;;;;5027707;28;20856;-79
2023/05/17 01:19:09;;;;;;;19.13;6.10;;;;;;;;;;5032734;28;21212;-80
2023/05/17 01:21:40;;;;;;;27.17;8.07;;;;;;;;;;5030789;28;20481;-80
2023/05/17 01:24:16;;;;;;;21.50;8.10;;;;;;;;;;5028645;28;20456;-80
2023/05/17 01:26:45;;;;;;;18.23;8.53;;;;;;;;;;5029858;28;20487;-80
2023/05/17 01:29:14;;;;;;;14.20;7.20;;;;;;;;;;5026155;28;20932;-80
2023/05/17 01:31:41;;;;;;;20.57;7.13;;;;;;;;;;5026386;28;20481;-80
2023/05/17 01:34:08;;;;;;;19.40;6.67;;;;;;;;;;5027013;28;20461;-79
2023/05/17 01:36:34;;;;;;;25.97;7.00;;;;;;;;;;5025746;28;20842;-80
2023/05/17 01:39:00;;;;;;;21.33;6.33;;;;;;;;;;5027871;28;20463;-80
2023/05/17 01:41:29;;;;;;;17.27;6.03;;;;;;;;;;5007763;28;20508;-80
2023/05/17 01:44:00;;;;;;;14.53;6.87;;;;;;;;;;5032228;28;20492;-80
2023/05/17 01:46:28;;;;;;;18.80;6.20;;;;;;;;;;5035437;28;20526;-80
2023/05/17 01:48:56;;;;;;;9.13;4.70;;;;;;;;;;5027414;28;20452;-79
2023/05/17 01:51:24;;;;;;;22.63;5.27;;;;;;;;;;5030950;28;20546;-79
2023/05/17 01:53:55;;;;;;;15.67;4.77;;;;;;;;;;5030644;28;20460;-79
2023/05/17 01:56:26;;;;;;;22.83;4.00;;;;;;;;;;5027870;28;20469;-79
2023/05/17 01:58:54;;;;;;;16.30;5.03;;;;;;;;;;5025594;28;20476;-80
2023/05/17 02:01:22;;;;;;;13.80;3.80;;;;;;;;;;5026044;28;21010;-80
2023/05/17 02:03:49;;;;;;;16.60;6.10;;;;;;;;;;5026077;28;20452;-80
2023/05/17 02:06:15;;;;;;;21.93;5.57;;;;;;;;;;5023184;28;20920;-80
2023/05/17 02:08:42;;;;;;;22.50;5.60;;;;;;;;;;5025499;28;20491;-80
2023/05/17 02:11:08;;;;;;;10.60;5.00;;;;;;;;;;5011517;28;20484;-79
2023/05/17 02:13:35;;;;;;;9.23;4.30;;;;;;;;;;5012011;28;20514;-79
2023/05/17 02:16:01;;;;;;;14.67;4.97;;;;;;;;;;5032206;28;20476;-80
2023/05/17 02:18:29;;;;;;;23.80;4.00;;;;;;;;;;5014268;28;20465;-80
2023/05/17 02:20:56;;;;;;;9.63;4.33;;;;;;;;;;5030366;28;20472;-79
2023/05/17 02:23:23;;;;;;;14.80;4.63;;;;;;;;;;5027850;28;20434;-79
2023/05/17 02:25:50;;;;;;;12.27;4.30;;;;;;;;;;5027145;28;20889;-79
2023/05/17 02:28:16;;;;;;;15.73;4.43;;;;;;;;;;5014569;28;20480;-80
2023/05/17 02:30:44;;;;;;;19.00;4.07;;;;;;;;;;5030945;28;20462;-80
2023/05/17 02:33:11;;;;;;;15.17;5.47;;;;;;;;;;5027986;28;20459;-80
2023/05/17 02:35:39;;;;;;;13.60;4.00;;;;;;;;;;5027850;28;20994;-80
2023/05/17 02:38:05;;;;;;;24.03;4.07;;;;;;;;;;5022663;28;20468;-79
2023/05/17 02:40:31;;;;;;;27.00;4.90;;;;;;;;;;5027564;28;20588;-80
2023/05/17 02:42:58;;;;;;;15.10;5.30;;;;;;;;;;5031727;28;20449;-79
2023/05/17 02:45:24;;;;;;;19.43;4.77;;;;;;;;;;5030362;28;20488;-79
2023/05/17 02:47:51;;;;;;;13.20;3.70;;;;;;;;;;5028342;28;20865;-79
2023/05/17 02:50:18;;;;;;;13.60;4.13;;;;;;;;;;5012036;28;20465;-79
2023/05/17 02:52:45;;;;;;;18.60;4.20;;;;;;;;;;5031164;28;20460;-79
2023/05/17 02:55:12;;;;;;;12.00;3.00;;;;;;;;;;5030214;28;20481;-79
2023/05/17 02:57:39;;;;;;;17.73;4.40;;;;;;;;;;5024615;28;20472;-80
2023/05/17 03:00:07;;;;;;;9.97;4.17;;;;;;;;;;5027309;28;20502;-79
2023/05/17 03:02:33;;;;;;;9.87;3.10;;;;;;;;;;5028581;28;20444;-80
2023/05/17 03:05:00;;;;;;;11.17;3.53;;;;;;;;;;5012704;28;20948;-80
2023/05/17 03:07:26;;;;;;;9.43;3.30;;;;;;;;;;5030403;28;20982;-79
2023/05/17 03:09:54;;;;;;;10.90;3.63;;;;;;;;;;5029634;28;20452;-80
2023/05/17 03:12:20;;;;;;;10.53;2.77;;;;;;;;;;5021880;28;20445;-80
2023/05/17 03:14:48;;;;;;;11.20;2.87;;;;;;;;;;5032092;28;20471;-80
2023/05/17 03:17:14;;;;;;;8.40;3.63;;;;;;;;;;5031227;28;20480;-79
2023/05/17 03:19:41;;;;;;;9.37;3.50;;;;;;;;;;5029281;28;20451;-80
2023/05/17 03:22:07;;;;;;;10.60;3.17;;;;;;;;;;5032752;28;20476;-79
2023/05/17 03:24:33;;;;;;;9.80;2.40;;;;;;;;;;5025030;28;20440;-79
2023/05/17 03:27:01;;;;;;;8.33;3.20;;;;;;;;;;5031126;28;20473;-80
2023/05/17 03:29:28;;;;;;;10.07;2.70;;;;;;;;;;5029869;28;20449;-79
2023/05/17 03:31:54;;;;;;;9.50;3.40;;;;;;;;;;5032168;28;20470;-79
2023/05/17 03:34:20;;;;;;;11.97;3.00;;;;;;;;;;5033571;28;20507;-80
2023/05/17 03:36:47;;;;;;;11.50;3.33;;;;;;;;;;5028973;28;21010;-79
2023/05/17 03:39:13;;;;;;;18.00;4.40;;;;;;;;;;5026119;28;20456;-79
2023/05/17 03:41:40;;;;;;;12.93;3.67;;;;;;;;;;5030508;28;20838;-79
2023/05/17 03:44:08;;;;;;;6.80;2.90;;;;;;;;;;5027846;28;20487;-80
2023/05/17 03:46:34;;;;;;;14.70;3.37;;;;;;;;;;5008835;28;21012;-79
2023/05/17 03:49:01;;;;;;;7.70;2.60;;;;;;;;;;5033524;28;20467;-79
2023/05/17 03:51:27;;;;;;;14.80;4.30;;;;;;;;;;5030505;28;20468;-79
2023/05/17 03:53:57;;;;;;;7.27;2.90;;;;;;;;;;5032829;28;20460;-80
2023/05/17 03:56:25;;;;;;;7.53;2.60;;;;;;;;;;5028835;28;20469;-80
2023/05/17 03:58:51;;;;;;;9.50;2.57;;;;;;;;;;5028535;28;20465;-80
2023/05/17 04:01:19;;;;;;;9.33;2.70;;;;;;;;;;5025976;28;20481;-79
2023/05/17 04:03:45;;;;;;;10.70;2.43;;;;;;;;;;5033330;28;20823;-79
2023/05/17 04:06:13;;;;;;;11.43;3.17;;;;;;;;;;5012724;28;20476;-80
2023/05/17 04:08:39;;;;;;;8.70;3.27;;;;;;;;;;5026726;28;20485;-79
2023/05/17 04:11:11;;;;;;;9.80;3.53;;;;;;;;;;5031966;28;20472;-79
2023/05/17 04:13:38;;;;;;;13.10;2.27;;;;;;;;;;5020029;28;20448;-79
2023/05/17 04:16:05;;;;;;;13.90;3.40;;;;;;;;;;5028671;28;20469;-80
2023/05/17 04:18:34;;;;;;;14.30;2.67;;;;;;;;;;5033429;28;21049;-79
2023/05/17 04:21:00;;;;;;;15.47;3.30;;;;;;;;;;5032133;28;20485;-80
2023/05/17 04:23:27;;;;;;;10.60;2.63;;;;;;;;;;5034631;28;20453;-79
2023/05/17 04:25:53;;;;;;;8.90;2.47;;;;;;;;;;5032144;28;20473;-80
2023/05/17 04:28:20;;;;;;;11.30;2.27;;;;;;;;;;5011698;28;20484;-80
2023/05/17 04:30:47;;;;;;;8.33;2.63;;;;;;;;;;5028103;28;20468;-79
2023/05/17 04:33:13;;;;;;;14.43;3.80;;;;;;;;;;5022259;28;20460;-80
2023/05/17 04:35:42;;;;;;;5.90;2.60;;;;;;;;;;5007000;28;20484;-79
2023/05/17 04:38:09;;;;;;;8.60;1.87;;;;;;;;;;5030274;28;20480;-80
2023/05/17 04:40:37;;;;;;;10.70;2.40;;;;;;;;;;5028559;28;20473;-79
2023/05/17 04:43:03;;;;;;;14.33;2.63;;;;;;;;;;5026485;28;20524;-80
2023/05/17 04:45:32;;;;;;;9.43;2.50;;;;;;;;;;5009570;28;20477;-79
2023/05/17 04:47:58;;;;;;;8.97;2.60;;;;;;;;;;5028387;28;20532;-80
2023/05/17 04:50:25;;;;;;;7.37;2.20;;;;;;;;;;5011701;28;20909;-79
2023/05/17 04:52:53;;;;;;;22.40;3.33;;;;;;;;;;5033651;28;20448;-80
2023/05/17 04:55:19;;;;;;;7.23;2.07;;;;;;;;;;5028903;28;20477;-79
2023/05/17 04:57:46;;;;;;;9.90;2.90;;;;;;;;;;5030772;28;20485;-80
2023/05/17 05:00:14;;;;;;;15.83;2.60;;;;;;;;;;5028755;28;20466;-79
2023/05/17 05:02:40;;;;;;;14.37;2.83;;;;;;;;;;5029371;28;20558;-79
2023/05/17 05:05:08;;;;;;;14.23;3.87;;;;;;;;;;5009584;28;20841;-79
2023/05/17 05:07:35;;;;;;;8.37;2.70;;;;;;;;;;5008138;28;20481;-80
2023/05/17 05:10:03;;;;;;;7.43;2.50;;;;;;;;;;5032834;28;20473;-79
2023/05/17 05:12:29;;;;;;;6.73;2.40;;;;;;;;;;5031811;28;20436;-80
2023/05/17 05:14:56;;;;;;;9.87;2.70;;;;;;;;;;5031418;28;20456;-79
2023/05/17 05:17:22;;;;;;;10.30;2.53;;;;;;;;;;5021359;28;20476;-80
2023/05/17 05:19:49;;;;;;;7.87;2.87;;;;;;;;;;5025404;28;20451;-80
2023/05/17 05:22:15;;;;;;;13.80;3.20;;;;;;;;;;5010679;28;20481;-80
2023/05/17 05:24:41;;;;;;;36.63;4.87;;;;;;;;;;5022157;28;20970;-80
2023/05/17 05:27:09;;;;;;;22.47;3.30;;;;;;;;;;5029258;28;20481;-81
2023/05/17 05:29:36;;;;;;;10.43;3.33;;;;;;;;;;5027790;28;20445;-80
2023/05/17 05:32:02;;;;;;;11.40;2.53;;;;;;;;;;5026495;28;20457;-81
2023/05/17 05:34:30;;;;;;;14.03;5.30;;;;;;;;;;5030124;28;20445;-80
2023/05/17 05:36:56;;;;;;;9.60;2.77;;;;;;;;;;5011947;28;20481;-80
2023/05/17 05:39:23;;;;;;;11.70;2.77;;;;;;;;;;5032740;28;20457;-80
2023/05/17 05:41:50;;;;;;;8.20;2.50;;;;;;;;;;5028739;28;20994;-80
2023/05/17 05:44:18;;;;;;;14.23;3.10;;;;;;;;;;5031575;28;20461;-79
2023/05/17 05:46:44;;;;;;;14.10;3.40;;;;;;;;;;5030113;28;20483;-79
2023/05/17 05:49:11;;;;;;;14.43;3.70;;;;;;;;;;5029862;28;20938;-79
2023/05/17 05:51:37;;;;;;;11.93;3.27;;;;;;;;;;5001212;28;20535;-80
2023/05/17 05:54:03;;;;;;;7.40;2.40;;;;;;;;;;5031638;28;20456;-79
2023/05/17 05:56:30;;;;;;;14.70;3.20;;;;;;;;;;5028015;28;20475;-79
2023/05/17 05:58:57;;;;;;;15.43;4.07;;;;;;;;;;5032004;28;20986;-78
2023/05/17 06:01:25;;;;;;;14.13;3.50;;;;;;;;;;5030750;28;20476;-80
2023/05/17 06:03:51;;;;;;;11.97;2.43;;;;;;;;;;5030142;28;20445;-78
2023/05/17 06:06:18;;;;;;;9.80;3.27;;;;;;;;;;5029636;28;20477;-81
2023/05/17 06:08:46;;;;;;;9.77;2.83;;;;;;;;;;5030076;28;20480;-79
2023/05/17 06:11:12;;;;;;;6.27;2.20;;;;;;;;;;5005279;28;20469;-79
2023/05/17 06:13:39;;;;;;;6.70;2.47;;;;;;;;;;5013989;28;20460;-79
2023/05/17 06:16:06;;;;;;;18.30;3.17;;;;;;;;;;5026140;28;20484;-79
2023/05/17 06:18:34;;;;;;;20.50;2.93;;;;;;;;;;5026282;28;20481;-79
2023/05/17 06:21:00;;;;;;;8.00;2.70;;;;;;;;;;5024975;28;20998;-81
2023/05/17 06:23:26;;;;;;;10.07;2.60;;;;;;;;;;5019934;28;20450;-78
2023/05/17 06:25:53;;;;;;;8.00;2.60;;;;;;;;;;5025009;28;20486;-81
2023/05/17 06:28:19;;;;;;;10.93;3.30;;;;;;;;;;5032226;28;20487;-79
2023/05/17 06:30:47;;;;;;;7.13;2.70;;;;;;;;;;5024368;28;20552;-79
2023/05/17 06:33:14;;;;;;;8.70;2.30;;;;;;;;;;5026629;28;20454;-79
2023/05/17 06:35:41;;;;;;;8.90;2.53;;;;;;;;;;5023865;28;20473;-79
2023/05/17 06:38:08;;;;;;;10.43;2.47;;;;;;;;;;5021762;28;20476;-79
2023/05/17 06:40:34;;;;;;;10.33;2.90;;;;;;;;;;5031809;28;20477;-79
2023/05/17 06:43:01;;;;;;;14.20;3.53;;;;;;;;;;5027971;28;20481;-79
2023/05/17 06:45:28;;;;;;;9.83;2.80;;;;;;;;;;5030302;28;20538;-78
2023/05/17 06:47:54;;;;;;;14.63;2.53;;;;;;;;;;5026368;28;20865;-79
2023/05/17 06:50:21;;;;;;;14.53;3.00;;;;;;;;;;5029591;28;20469;-79
2023/05/17 06:52:49;;;;;;;12.07;2.57;;;;;;;;;;5033816;28;20461;-79
2023/05/17 06:55:15;;;;;;;15.60;3.43;;;;;;;;;;5029479;28;20479;-79
2023/05/17 06:57:41;;;;;;;10.90;3.30;;;;;;;;;;5034200;28;20476;-79
2023/05/17 07:00:09;;;;;;;7.77;2.80;;;;;;;;;;5027217;28;20473;-79
2023/05/17 07:02:36;;;;;;;9.73;3.03;;;;;;;;;;5032570;28;20480;-79
2023/05/17 07:05:02;;;;;;;11.67;3.00;;;;;;;;;;5032949;28;20975;-79
2023/05/17 07:07:29;;;;;;;13.73;2.80;;;;;;;;;;5029383;28;20492;-79
2023/05/17 07:09:56;;;;;;;14.00;3.90;;;;;;;;;;5030792;28;20460;-79
2023/05/17 07:12:23;;;;;;;16.20;2.73;;;;;;;;;;5030615;28;20464;-79
2023/05/17 07:14:50;;;;;;;18.87;4.13;;;;;;;;;;5034296;28;20457;-79
2023/05/17 07:17:16;;;;;;;12.30;3.73;;;;;;;;;;5030323;28;20857;-79
2023/05/17 07:19:43;;;;;;;5.57;2.37;;;;;;;;;;5030118;28;20460;-79
2023/05/17 07:22:11;;;;;;;19.10;2.97;;;;;;;;;;5030086;28;20859;-79
2023/05/17 07:24:37;;;;;;;10.50;2.93;;;;;;;;;;5023470;28;20460;-79
2023/05/17 07:27:05;;;;;;;9.80;3.87;;;;;;;;;;5035014;28;20480;-81
2023/05/17 07:29:32;;;;;;;15.37;2.93;;;;;;;;;;5029372;28;20515;-81
2023/05/17 07:31:58;;;;;;;8.63;2.60;;;;;;;;;;5025899;28;20465;-79
2023/05/17 07:34:25;;;;;;;9.83;2.33;;;;;;;;;;5027270;28;20456;-78
2023/05/17 07:36:51;;;;;;;9.70;2.00;;;;;;;;;;5030009;28;20477;-79
2023/05/17 07:39:18;;;;;;;15.50;3.03;;;;;;;;;;5011543;28;20885;-79
2023/05/17 07:41:44;;;;;;;9.60;2.20;;;;;;;;;;5030914;28;20484;-79
2023/05/17 07:44:12;;;;;;;12.03;3.07;;;;;;;;;;5035350;28;20514;-79
2023/05/17 07:46:40;;;;;;;4.90;1.70;;;;;;;;;;5033667;28;20555;-79
2023/05/17 07:49:06;;;;;;;10.73;1.93;;;;;;;;;;5032337;28;20449;-79
2023/05/17 07:51:33;;;;;;;7.80;2.60;;;;;;;;;;5032920;28;20473;-79
2023/05/17 07:54:01;;;;;;;6.43;1.63;;;;;;;;;;5030375;28;20950;-80
2023/05/17 07:56:28;;;;;;;6.93;2.30;;;;;;;;;;5030726;28;20503;-80
2023/05/17 07:58:55;;;;;;;5.10;2.07;;;;;;;;;;5013549;28;20458;-80
2023/05/17 08:01:23;;;;;;;6.43;2.40;;;;;;;;;;5031865;28;20476;-80
2023/05/17 08:03:49;;;;;;;6.93;2.60;;;;;;;;;;5033672;28;20488;-80
2023/05/17 08:06:16;;;;;;;6.73;2.57;;;;;;;;;;5033570;28;20480;-80
2023/05/17 08:08:42;;;;;;;9.33;2.20;;;;;;;;;;5029833;28;20828;-81
2023/05/17 08:11:09;;;;;;;9.73;2.03;;;;;;;;;;5027731;28;20480;-80
2023/05/17 08:13:36;;;;;;;8.60;2.03;;;;;;;;;;5031144;28;20989;-80
2023/05/17 08:16:06;;;;;;;8.73;2.40;;;;;;;;;;5024731;28;20483;-78
2023/05/17 08:18:34;;;;;;;14.40;2.77;;;;;;;;;;5032252;28;20480;-80
2023/05/17 08:21:01;;;;;;;8.50;2.30;;;;;;;;;;5031856;28;20920;-80
2023/05/17 08:23:27;;;;;;;18.17;2.20;;;;;;;;;;5029753;28;20990;-80
2023/05/17 08:25:53;;;;;;;6.33;1.50;;;;;;;;;;5026478;28;20485;-80
2023/05/17 08:28:20;;;;;;;8.33;2.40;;;;;;;;;;5034324;28;20473;-81
2023/05/17 08:30:46;;;;;;;5.33;1.60;;;;;;;;;;5031163;28;20491;-79
2023/05/17 08:33:12;;;;;;;4.03;1.60;;;;;;;;;;5031529;28;20835;-80
2023/05/17 08:35:40;;;;;;;7.93;1.93;;;;;;;;;;5027543;28;20480;-78
2023/05/17 08:38:07;;;;;;;8.23;2.20;;;;;;;;;;5029908;28;20988;-80
2023/05/17 08:40:33;;;;;;;5.87;2.20;;;;;;;;;;5031819;28;20472;-80
2023/05/17 08:43:01;;;;;;;10.20;2.93;;;;;;;;;;5015233;28;20468;-80
2023/05/17 08:45:27;;;;;;;6.87;1.97;;;;;;;;;;5033413;28;20464;-80
2023/05/17 08:47:56;;;;;;;7.70;2.00;;;;;;;;;;5024566;28;20562;-80
2023/05/17 08:50:24;;;;;;;6.00;2.70;;;;;;;;;;5009570;28;20474;-80
2023/05/17 08:52:51;;;;;;;8.27;2.10;;;;;;;;;;5033146;28;20941;-80
2023/05/17 08:55:18;;;;;;;8.43;2.03;;;;;;;;;;5031524;28;20476;-80
2023/05/17 08:57:44;;;;;;;4.90;2.17;;;;;;;;;;5028559;28;20476;-78
2023/05/17 09:00:13;;;;;;;5.17;2.20;;;;;;;;;;5011931;28;20475;-79
2023/05/17 09:02:40;;;;;;;5.30;2.43;;;;;;;;;;5032630;28;20526;-80
2023/05/17 09:05:08;;;;;;;7.90;2.70;;;;;;;;;;5028738;28;20472;-80
2023/05/17 09:07:34;;;;;;;8.10;2.30;;;;;;;;;;4999639;28;20922;-81
2023/05/17 09:10:04;;;;;;;8.43;2.33;;;;;;;;;;5031099;28;21095;-79
2023/05/17 09:12:33;;;;;;;10.93;2.00;;;;;;;;;;5017819;28;20456;-81
2023/05/17 09:15:16;;;;;;;5.47;2.07;;;;;;;;;;5031025;28;20468;-81
2023/05/17 09:17:42;;;;;;;6.60;1.87;;;;;;;;;;5023925;28;20480;-80
2023/05/17 09:20:09;;;;;;;8.10;2.40;;;;;;;;;;5033356;28;20476;-80
2023/05/17 09:22:36;;;;;;;13.83;2.70;;;;;;;;;;5032770;28;21117;-80
2023/05/17 09:25:04;;;;;;;5.20;3.00;;;;;;;;;;5015328;28;20472;-80
2023/05/17 09:27:31;;;;;;;5.50;1.70;;;;;;;;;;5031224;28;20534;-81
2023/05/17 09:29:58;;;;;;;4.90;1.60;;;;;;;;;;5033929;28;20814;-81
2023/05/17 09:32:25;;;;;;;6.17;1.83;;;;;;;;;;5012519;28;20445;-81
2023/05/17 09:34:52;;;;;;;13.13;2.57;;;;;;;;;;5019729;28;20477;-81
2023/05/17 09:37:19;;;;;;;7.97;2.10;;;;;;;;;;5031944;28;20480;-81
2023/05/17 09:39:46;;;;;;;8.87;2.70;;;;;;;;;;5031823;28;20468;-81
2023/05/17 09:42:15;;;;;;;10.53;2.53;;;;;;;;;;5023450;28;20519;-81
2023/05/17 09:44:47;;;;;;;9.10;2.63;;;;;;;;;;5028373;28;20551;-81
2023/05/17 09:47:22;;;;;;;10.53;2.27;;;;;;;;;;5033932;28;20492;-80
2023/05/17 09:49:48;;;;;;;8.90;2.03;;;;;;;;;;5028522;28;20469;-82
2023/05/17 09:52:17;;;;;;;9.53;2.73;;;;;;;;;;5028222;28;20471;-80
2023/05/17 09:54:43;;;;;;;7.50;2.50;;;;;;;;;;5004819;28;20464;-80
2023/05/17 09:57:10;;;;;;;2.70;1.63;;;;;;;;;;5030340;28;20538;-80
2023/05/17 09:59:38;;;;;;;4.30;2.00;;;;;;;;;;5029456;28;20468;-80
2023/05/17 10:02:06;;;;;;;6.37;1.93;;;;;;;;;;5028519;28;20457;-79
2023/05/17 10:04:36;;;;;;;12.13;2.60;;;;;;;;;;5032426;28;20448;-80
2023/05/17 10:07:03;;;;;;;6.00;2.20;;;;;;;;;;5031634;28;20496;-82
2023/05/17 10:09:33;;;;;;;6.43;1.90;;;;;;;;;;5029152;28;20456;-80
2023/05/17 10:12:00;;;;;;;8.27;2.47;;;;;;;;;;5028595;28;20468;-79
2023/05/17 10:14:30;;;;;;;7.23;2.33;;;;;;;;;;5029586;28;20978;-79
2023/05/17 10:16:58;;;;;;;6.17;2.50;;;;;;;;;;5013967;28;20993;-81
2023/05/17 10:19:25;;;;;;;14.77;2.67;;;;;;;;;;5025678;28;20463;-81
2023/05/17 10:21:52;;;;;;;9.47;1.87;;;;;;;;;;5029295;28;20445;-81
2023/05/17 10:24:20;;;;;;;5.60;1.90;;;;;;;;;;5025892;28;20488;-82
2023/05/17 10:26:46;;;;;;;5.07;1.50;;;;;;;;;;5030864;28;20455;-80
2023/05/17 10:29:13;;;;;;;4.57;2.23;;;;;;;;;;5002727;28;20457;-81
2023/05/17 10:31:41;;;;;;;3.07;1.60;;;;;;;;;;5034634;28;20476;-81
2023/05/17 10:34:10;;;;;;;11.97;2.43;;;;;;;;;;5036191;28;20449;-81
2023/05/17 10:36:37;;;;;;;6.03;2.90;;;;;;;;;;5039223;28;20483;-82
2023/05/17 10:39:06;;;;;;;11.33;3.00;;;;;;;;;;5014494;28;20461;-81
2023/05/17 10:41:34;;;;;;;7.50;2.60;;;;;;;;;;5002166;28;20571;-81
2023/05/17 10:44:01;;;;;;;9.47;2.43;;;;;;;;;;5034022;28;20480;-80
2023/05/17 10:46:29;;;;;;;7.90;2.70;;;;;;;;;;5034293;28;20484;-82
2023/05/17 10:48:57;;;;;;;8.30;2.90;;;;;;;;;;5012265;28;20815;-82
2023/05/17 10:51:25;;;;;;;5.70;1.83;;;;;;;;;;5031879;28;20472;-81
2023/05/17 10:54:07;;;;;;;9.07;2.53;;;;;;;;;;5030163;28;20441;-81
2023/05/17 10:56:34;;;;;;;10.83;2.60;;;;;;;;;;5024905;28;20480;-80
2023/05/17 10:59:20;;;;;;;10.40;2.87;;;;;;;;;;5035665;28;20460;-80
2023/05/17 11:02:00;;;;;;;9.13;2.17;;;;;;;;;;5032809;28;20508;-79
2023/05/17 11:04:28;;;;;;;12.80;3.00;;;;;;;;;;5030584;28;20914;-80
2023/05/17 11:07:16;;;;;;;4.53;1.80;;;;;;;;;;5034996;28;20538;-81
2023/05/17 11:09:43;;;;;;;9.67;2.40;;;;;;;;;;5031867;28;20461;-81
2023/05/17 11:12:10;;;;;;;7.87;2.03;;;;;;;;;;5031276;28;20456;-81
2023/05/17 11:14:43;;;;;;;8.67;2.13;;;;;;;;;;5031578;28;20481;-81
2023/05/17 11:17:13;;;;;;;3.90;1.83;;;;;;;;;;5033468;28;20480;-81
2023/05/17 11:19:48;;;;;;;5.20;2.00;;;;;;;;;;5035644;28;20468;-81
2023/05/17 11:22:17;;;;;;;5.20;1.90;;;;;;;;;;5033115;28;20824;-81
2023/05/17 11:24:45;;;;;;;10.73;2.17;;;;;;;;;;5032837;28;20471;-81
2023/05/17 11:27:12;;;;;;;14.47;3.37;;;;;;;;;;5038353;28;21055;-82
2023/05/17 11:29:40;;;;;;;5.57;2.20;;;;;;;;;;5035895;28;20465;-81
2023/05/17 11:32:07;;;;;;;14.17;2.50;;;;;;;;;;5035596;28;20958;-81
2023/05/17 11:34:33;;;;;;;6.57;2.70;;;;;;;;;;5034010;28;20454;-81
2023/05/17 11:37:00;;;;;;;6.60;2.80;;;;;;;;;;5031830;28;20465;-81
2023/05/17 11:39:28;;;;;;;8.93;2.90;;;;;;;;;;5037617;28;20452;-81
2023/05/17 11:41:55;;;;;;;6.40;2.90;;;;;;;;;;5032982;28;20458;-81
2023/05/17 11:44:27;;;;;;;9.80;3.20;;;;;;;;;;5030294;28;20485;-82
2023/05/17 11:47:00;;;;;;;7.67;1.97;;;;;;;;;;5018041;28;20477;-81
2023/05/17 11:49:27;;;;;;;13.53;2.80;;;;;;;;;;5032619;28;20464;-82
2023/05/17 11:51:54;;;;;;;8.10;2.90;;;;;;;;;;5039461;28;20441;-81
2023/05/17 11:54:22;;;;;;;7.27;3.47;;;;;;;;;;5038372;28;20445;-82
2023/05/17 11:56:50;;;;;;;6.47;2.30;;;;;;;;;;5014689;28;20961;-81
2023/05/17 11:59:18;;;;;;;17.93;3.53;;;;;;;;;;5036449;28;20453;-82
2023/05/17 12:01:45;;;;;;;8.23;2.43;;;;;;;;;;5034413;28;20471;-81
2023/05/17 12:04:14;;;;;;;9.87;2.87;;;;;;;;;;5036748;28;20484;-81
2023/05/17 12:06:41;;;;;;;7.03;2.10;;;;;;;;;;5022243;28;20482;-82
2023/05/17 12:09:09;;;;;;;8.13;2.07;;;;;;;;;;5018301;28;20465;-81
2023/05/17 12:11:38;;;;;;;9.53;2.67;;;;;;;;;;5041093;28;20566;-81
2023/05/17 12:14:08;;;;;;;8.57;2.03;;;;;;;;;;5022795;28;20852;-82
2023/05/17 12:16:36;;;;;;;15.10;2.83;;;;;;;;;;5039553;28;20998;-81
2023/05/17 12:19:02;;;;;;;7.23;2.03;;;;;;;;;;5027803;28;20448;-82
2023/05/17 12:21:30;;;;;;;7.13;2.00;;;;;;;;;;5021994;28;20477;-82
2023/05/17 12:23:57;;;;;;;7.03;2.60;;;;;;;;;;5041437;28;20865;-82
2023/05/17 12:26:23;;;;;;;6.77;2.87;;;;;;;;;;5039084;28;20854;-82
2023/05/17 12:28:53;;;;;;;11.33;3.00;;;;;;;;;;5036696;28;20476;-82
2023/05/17 12:31:24;;;;;;;8.00;2.97;;;;;;;;;;5038286;28;20471;-82
2023/05/17 12:33:51;;;;;;;9.03;2.83;;;;;;;;;;5038607;28;20448;-82
2023/05/17 12:36:17;;;;;;;12.80;2.60;;;;;;;;;;5037388;28;20906;-82
2023/05/17 12:38:45;;;;;;;6.60;2.67;;;;;;;;;;5032037;28;20460;-80
2023/05/17 12:41:12;;;;;;;10.17;2.60;;;;;;;;;;5032506;28;20555;-81
2023/05/17 12:43:39;;;;;;;8.33;2.77;;;;;;;;;;5036529;28;20998;-82
2023/05/17 12:46:06;;;;;;;12.53;2.90;;;;;;;;;;5025413;28;20473;-82
2023/05/17 12:48:34;;;;;;;10.80;3.03;;;;;;;;;;5032649;28;20545;-82
2023/05/17 12:51:08;;;;;;;9.03;2.73;;;;;;;;;;5036676;28;20480;-81
2023/05/17 12:53:35;;;;;;;7.47;2.40;;;;;;;;;;5033480;28;20476;-81
2023/05/17 12:56:02;;;;;;;9.80;2.43;;;;;;;;;;5033388;28;21000;-81
2023/05/17 12:58:28;;;;;;;11.87;2.70;;;;;;;;;;5037216;28;20472;-81
2023/05/17 13:00:58;;;;;;;8.53;2.67;;;;;;;;;;5034165;28;20476;-83
2023/05/17 13:03:25;;;;;;;11.20;3.20;;;;;;;;;;5020139;28;20606;-81
2023/05/17 13:06:12;;;;;;;9.43;2.87;;;;;;;;;;5035867;28;20559;-80
2023/05/17 13:08:40;;;;;;;8.43;2.80;;;;;;;;;;5024815;28;21028;-80
2023/05/17 13:11:10;;;;;;;5.73;2.10;;;;;;;;;;5025708;28;21006;-79
2023/05/17 13:13:37;;;;;;;12.20;2.50;;;;;;;;;;5027073;28;20437;-80
2023/05/17 13:16:04;;;;;;;9.40;2.83;;;;;;;;;;5026146;28;20474;-81
2023/05/17 13:18:34;;;;;;;17.57;3.33;;;;;;;;;;5029782;28;21004;-81
2023/05/17 13:21:00;;;;;;;8.90;2.47;;;;;;;;;;5034464;28;20552;-82
2023/05/17 13:23:27;;;;;;;4.93;2.37;;;;;;;;;;5029702;28;20449;-81
2023/05/17 13:25:54;;;;;;;10.40;2.87;;;;;;;;;;5028117;28;20469;-81
2023/05/17 13:28:21;;;;;;;5.77;2.10;;;;;;;;;;5029119;28;20466;-81
2023/05/17 13:30:50;;;;;;;10.43;3.07;;;;;;;;;;5030076;28;20472;-81
2023/05/17 13:33:17;;;;;;;6.00;2.27;;;;;;;;;;5030178;28;20523;-80
2023/05/17 13:35:43;;;;;;;5.43;2.10;;;;;;;;;;5030923;28;21029;-81
2023/05/17 13:38:10;;;;;;;6.70;1.67;;;;;;;;;;5028796;28;21017;-81
2023/05/17 13:40:37;;;;;;;5.70;2.13;;;;;;;;;;5020914;28;20478;-81
2023/05/17 13:43:04;;;;;;;9.00;2.43;;;;;;;;;;5007676;28;20444;-81
2023/05/17 13:45:31;;;;;;;8.80;2.53;;;;;;;;;;5032692;28;20488;-81
2023/05/17 13:47:58;;;;;;;10.67;2.47;;;;;;;;;;5007615;28;20883;-80
2023/05/17 13:50:25;;;;;;;7.13;2.30;;;;;;;;;;5031289;28;20500;-80
2023/05/17 13:52:51;;;;;;;7.83;2.00;;;;;;;;;;5027807;28;20926;-82
2023/05/17 13:55:18;;;;;;;7.33;2.53;;;;;;;;;;5032871;28;21021;-81
2023/05/17 13:57:45;;;;;;;5.30;1.90;;;;;;;;;;5033054;28;20483;-81
2023/05/17 14:00:14;;;;;;;9.20;2.63;;;;;;;;;;5026367;28;20481;-81
2023/05/17 14:02:41;;;;;;;6.87;2.87;;;;;;;;;;5028561;28;20456;-81
2023/05/17 14:05:08;;;;;;;9.97;2.30;;;;;;;;;;4998672;28;20584;-81
2023/05/17 14:07:35;;;;;;;8.80;2.53;;;;;;;;;;5026591;28;20868;-80
2023/05/17 14:10:03;;;;;;;6.67;2.40;;;;;;;;;;5034307;28;20481;-80
2023/05/17 14:12:29;;;;;;;9.13;2.50;;;;;;;;;;5026009;28;20456;-79
2023/05/17 14:14:56;;;;;;;8.37;2.60;;;;;;;;;;5027415;28;20465;-81
2023/05/17 14:17:24;;;;;;;7.13;2.90;;;;;;;;;;5030083;28;20493;-81
2023/05/17 14:19:50;;;;;;;20.73;2.77;;;;;;;;;;5021911;28;20995;-82
2023/05/17 14:22:16;;;;;;;9.30;2.80;;;;;;;;;;5031997;28;20472;-81
2023/05/17 14:24:43;;;;;;;5.53;2.20;;;;;;;;;;5030237;28;20468;-82
2023/05/17 14:27:10;;;;;;;8.03;2.40;;;;;;;;;;5031482;28;20476;-81
2023/05/17 14:29:36;;;;;;;8.30;3.10;;;;;;;;;;5030685;28;20452;-82
2023/05/17 14:32:03;;;;;;;8.80;2.33;;;;;;;;;;5031563;28;20449;-81
2023/05/17 14:34:31;;;;;;;5.93;2.40;;;;;;;;;;5033687;28;20822;-82
2023/05/17 14:36:57;;;;;;;7.90;2.77;;;;;;;;;;5038508;28;20503;-81